createdAt,value
2023-02-27T00:01:50.297Z,-3.41
2023-02-27T00:04:16.759Z,-3.54
2023-02-27T00:06:43.135Z,-3.41
2023-02-27T00:09:09.569Z,-3.48
2023-02-27T00:11:38.398Z,-3.51
2023-02-27T00:14:04.827Z,-3.54
2023-02-27T00:16:31.210Z,-3.68
2023-02-27T00:19:01.039Z,-3.72
2023-02-27T00:21:27.969Z,-3.65
2023-02-27T00:23:55.332Z,-3.69
2023-02-27T00:26:21.725Z,-3.70
2023-02-27T00:28:48.090Z,-3.83
2023-02-27T00:31:14.625Z,-3.72
2023-02-27T00:33:40.967Z,-3.79
2023-02-27T00:36:07.353Z,-3.79
2023-02-27T00:38:33.709Z,-3.97
2023-02-27T00:41:00.137Z,-3.83
2023-02-27T00:43:26.721Z,-3.82
2023-02-27T00:45:53.126Z,-3.91
2023-02-27T00:48:20.012Z,-3.83
2023-02-27T00:50:46.411Z,-3.77
2023-02-27T00:53:12.919Z,-3.90
2023-02-27T00:55:39.256Z,-3.99
2023-02-27T00:58:05.622Z,-3.91
2023-02-27T01:00:32.200Z,-3.81
2023-02-27T01:02:58.602Z,-3.84
2023-02-27T01:05:24.970Z,-3.91
2023-02-27T01:07:51.375Z,-3.86
2023-02-27T01:10:17.905Z,-3.93
2023-02-27T01:12:44.331Z,-4.05
2023-02-27T01:15:12.256Z,-4.04
2023-02-27T01:17:39.175Z,-4.05
2023-02-27T01:20:07.413Z,-3.94
2023-02-27T01:22:34.175Z,-3.86
2023-02-27T01:25:00.896Z,-3.77
2023-02-27T01:27:27.437Z,-3.88
2023-02-27T01:29:53.839Z,-3.81
2023-02-27T01:32:20.312Z,-3.81
2023-02-27T01:34:46.909Z,-3.88
2023-02-27T01:37:13.419Z,-3.90
2023-02-27T01:39:39.827Z,-4.06
2023-02-27T01:42:18.352Z,-4.00
2023-02-27T01:45:09.553Z,-3.97
2023-02-27T01:47:39.128Z,-4.08
2023-02-27T01:50:06.305Z,-4.16
2023-02-27T01:52:35.506Z,-4.15
2023-02-27T01:55:03.442Z,-4.19
2023-02-27T01:57:29.912Z,-4.17
2023-02-27T01:59:56.312Z,-4.08
2023-02-27T02:02:31.555Z,-4.16
2023-02-27T02:04:58.947Z,-4.33
2023-02-27T02:07:25.540Z,-4.28
2023-02-27T02:09:54.825Z,-4.33
2023-02-27T02:12:25.634Z,-4.24
2023-02-27T02:14:52.079Z,-4.35
2023-02-27T02:17:29.786Z,-4.18
2023-02-27T02:20:23.242Z,-4.25
2023-02-27T02:23:27.076Z,-4.35
2023-02-27T02:26:14.089Z,-4.17
2023-02-27T02:28:52.237Z,-4.19
2023-02-27T02:31:18.624Z,-4.22
2023-02-27T02:33:57.047Z,-4.26
2023-02-27T02:36:26.406Z,-4.34
2023-02-27T02:39:20.391Z,-4.27
2023-02-27T02:42:11.467Z,-4.21
2023-02-27T02:44:40.882Z,-4.25
2023-02-27T02:47:24.784Z,-4.38
2023-02-27T02:50:01.198Z,-4.40
2023-02-27T02:52:45.968Z,-4.30
2023-02-27T02:55:18.532Z,-4.20
2023-02-27T02:58:17.469Z,-4.20
2023-02-27T03:00:54.296Z,-4.33
2023-02-27T03:03:34.986Z,-4.42
2023-02-27T03:06:06.702Z,-4.39
2023-02-27T03:08:40.631Z,-4.53
2023-02-27T03:11:07.105Z,-4.54
2023-02-27T03:13:38.986Z,-4.60
2023-02-27T03:16:19.740Z,-4.62
2023-02-27T03:19:24.719Z,-4.57
2023-02-27T03:22:02.658Z,-4.57
2023-02-27T03:24:42.300Z,-4.65
2023-02-27T03:27:09.587Z,-4.75
2023-02-27T03:29:52.228Z,-4.63
2023-02-27T03:32:49.393Z,-4.57
2023-02-27T03:35:16.126Z,-4.64
2023-02-27T03:37:49.501Z,-4.63
2023-02-27T03:40:52.369Z,-4.67
2023-02-27T03:43:32.249Z,-4.71
2023-02-27T03:46:11.411Z,-4.74
2023-02-27T03:48:38.550Z,-4.74
2023-02-27T03:51:05.085Z,-4.73
2023-02-27T03:53:41.507Z,-4.75
2023-02-27T03:56:09.955Z,-4.79
2023-02-27T03:58:36.730Z,-4.76
2023-02-27T04:01:03.290Z,-4.69
2023-02-27T04:03:32.829Z,-4.77
2023-02-27T04:06:19.251Z,-4.81
2023-02-27T04:09:10.406Z,-4.85
2023-02-27T04:11:55.058Z,-4.88
2023-02-27T04:14:35.442Z,-4.97
2023-02-27T04:17:22.855Z,-4.91
2023-02-27T04:20:14.549Z,-4.94
2023-02-27T04:22:53.630Z,-5.04
2023-02-27T04:25:26.587Z,-5.01
2023-02-27T04:27:57.667Z,-5.10
2023-02-27T04:30:39.369Z,-5.00
2023-02-27T04:33:12.021Z,-4.97
2023-02-27T04:35:47.460Z,-5.15
2023-02-27T04:38:30.490Z,-5.12
2023-02-27T04:41:07.097Z,-5.09
2023-02-27T04:43:35.742Z,-5.02
2023-02-27T04:46:05.170Z,-5.02
2023-02-27T04:48:46.845Z,-4.96
2023-02-27T04:51:20.610Z,-5.00
2023-02-27T04:53:58.651Z,-5.04
2023-02-27T04:56:34.618Z,-5.15
2023-02-27T04:59:08.898Z,-5.14
2023-02-27T05:01:44.020Z,-5.18
2023-02-27T05:04:15.867Z,-5.15
2023-02-27T05:06:45.023Z,-5.19
2023-02-27T05:09:30.703Z,-5.16
2023-02-27T05:12:03.986Z,-5.05
2023-02-27T05:14:36.115Z,-5.08
2023-02-27T05:17:17.999Z,-5.11
2023-02-27T05:19:45.798Z,-5.07
2023-02-27T05:22:24.057Z,-4.95
2023-02-27T05:25:09.043Z,-4.82
2023-02-27T05:27:47.017Z,-4.86
2023-02-27T05:30:28.621Z,-4.77
2023-02-27T05:33:01.939Z,-4.86
2023-02-27T05:35:33.733Z,-4.76
2023-02-27T05:38:20.324Z,-4.78
2023-02-27T05:41:09.429Z,-4.85
2023-02-27T05:43:41.903Z,-4.86
2023-02-27T05:46:21.158Z,-4.76
2023-02-27T05:48:56.436Z,-4.68
2023-02-27T05:51:28.080Z,-4.66
2023-02-27T05:54:01.348Z,-4.60
2023-02-27T05:56:30.567Z,-4.48
2023-02-27T05:59:03.143Z,-4.49
2023-02-27T06:01:29.585Z,-4.49
2023-02-27T06:03:56.145Z,-4.42
2023-02-27T06:06:22.811Z,-4.44
2023-02-27T06:08:49.206Z,-4.38
2023-02-27T06:11:15.623Z,-4.44
2023-02-27T06:13:42.310Z,-4.40
2023-02-27T06:16:11.436Z,-4.50
2023-02-27T06:18:37.795Z,-4.41
2023-02-27T06:21:04.990Z,-4.45
2023-02-27T06:23:31.355Z,-4.33
2023-02-27T06:25:58.158Z,-4.33
2023-02-27T06:28:24.706Z,-4.32
2023-02-27T06:30:55.491Z,-4.30
2023-02-27T06:33:21.869Z,-4.28
2023-02-27T06:35:49.441Z,-4.25
2023-02-27T06:38:16.426Z,-4.24
2023-02-27T06:40:42.868Z,-4.28
2023-02-27T06:43:09.461Z,-4.24
2023-02-27T06:45:36.151Z,-4.22
2023-02-27T06:48:02.604Z,-4.30
2023-02-27T06:50:29.007Z,-4.37
2023-02-27T06:52:55.382Z,-4.26
2023-02-27T06:55:22.666Z,-4.16
2023-02-27T06:57:49.297Z,-4.07
2023-02-27T07:00:16.809Z,-4.11
2023-02-27T07:02:43.302Z,-4.01
2023-02-27T07:05:13.399Z,-3.93
2023-02-27T07:07:40.225Z,-3.97
2023-02-27T07:10:11.683Z,-3.79
2023-02-27T07:12:38.814Z,-3.81
2023-02-27T07:15:06.139Z,-3.67
2023-02-27T07:17:32.545Z,-3.59
2023-02-27T07:19:58.883Z,-3.56
2023-02-27T07:22:25.238Z,-3.40
2023-02-27T07:24:51.603Z,-3.35
2023-02-27T07:27:17.990Z,-3.15
2023-02-27T07:29:44.369Z,-3.16
2023-02-27T07:32:11.267Z,-3.07
2023-02-27T07:34:37.666Z,-3.06
2023-02-27T07:37:04.045Z,-2.95
2023-02-27T07:39:30.397Z,-2.88
2023-02-27T07:41:56.831Z,-2.95
2023-02-27T07:44:23.194Z,-2.85
2023-02-27T07:46:49.665Z,-2.87
2023-02-27T07:49:16.040Z,-2.83
2023-02-27T07:51:42.414Z,-2.66
2023-02-27T07:54:08.767Z,-2.58
2023-02-27T07:56:35.230Z,-2.48
2023-02-27T07:59:01.665Z,-2.41
2023-02-27T08:01:28.155Z,-2.31
2023-02-27T08:03:56.372Z,-2.14
2023-02-27T08:06:23.592Z,-2.10
2023-02-27T08:08:50.800Z,-2.07
2023-02-27T08:11:18.423Z,-1.92
2023-02-27T08:14:02.748Z,-1.90
2023-02-27T08:16:31.011Z,-1.80
2023-02-27T08:18:58.249Z,-1.69
2023-02-27T08:21:25.320Z,-1.32
2023-02-27T08:23:51.831Z,-1.05
2023-02-27T08:26:18.488Z,-1.00
2023-02-27T08:28:45.751Z,-0.74
2023-02-27T08:31:12.396Z,-0.51
2023-02-27T08:33:39.213Z,-0.26
2023-02-27T08:36:06.388Z,-0.07
2023-02-27T08:38:32.878Z,0.21
2023-02-27T08:40:59.433Z,-0.01
2023-02-27T08:43:25.816Z,0.22
2023-02-27T08:45:52.668Z,0.19
2023-02-27T08:48:19.232Z,0.49
2023-02-27T08:50:46.461Z,0.83
2023-02-27T08:53:13.521Z,1.08
2023-02-27T08:55:39.896Z,1.54
2023-02-27T08:58:06.258Z,1.56
2023-02-27T09:00:32.901Z,1.40
2023-02-27T09:03:00.513Z,0.71
2023-02-27T09:05:27.681Z,0.46
2023-02-27T09:07:54.111Z,0.50
2023-02-27T09:10:20.468Z,0.30
2023-02-27T09:12:49.148Z,0.25
2023-02-27T09:15:15.917Z,0.27
2023-02-27T09:17:42.387Z,0.17
2023-02-27T09:20:10.654Z,0.19
2023-02-27T09:22:37.251Z,0.03
2023-02-27T09:25:03.918Z,0.16
2023-02-27T09:27:30.338Z,0.08
2023-02-27T09:29:56.741Z,-0.15
2023-02-27T09:32:24.069Z,-0.23
2023-02-27T09:34:50.601Z,-0.19
2023-02-27T09:37:19.117Z,-0.16
2023-02-27T09:39:46.480Z,-0.20
2023-02-27T09:42:25.483Z,-0.38
2023-02-27T09:45:05.430Z,-0.23
2023-02-27T09:47:43.803Z,-0.30
2023-02-27T09:50:33.715Z,-0.28
2023-02-27T09:53:00.390Z,-0.39
2023-02-27T09:55:30.484Z,-0.47
2023-02-27T09:58:08.008Z,-0.45
2023-02-27T10:00:56.749Z,-0.40
2023-02-27T10:03:52.446Z,-0.30
2023-02-27T10:06:38.870Z,-0.37
2023-02-27T10:09:24.319Z,-0.64
2023-02-27T10:12:23.884Z,-0.52
2023-02-27T10:15:12.797Z,-0.74
2023-02-27T10:17:44.568Z,-0.81
2023-02-27T10:20:20.257Z,-0.71
2023-02-27T10:22:49.436Z,-0.69
2023-02-27T10:25:30.841Z,-0.61
2023-02-27T10:28:08.950Z,-0.45
2023-02-27T10:30:35.661Z,-0.33
2023-02-27T10:33:12.677Z,-0.24
2023-02-27T10:35:42.178Z,-0.20
2023-02-27T10:38:29.302Z,-0.39
2023-02-27T10:40:58.000Z,-0.45
2023-02-27T10:43:24.541Z,-0.50
2023-02-27T10:45:51.034Z,-0.53
2023-02-27T10:48:19.509Z,-0.51
2023-02-27T10:50:52.061Z,-0.68
2023-02-27T10:53:24.497Z,-0.74
2023-02-27T10:56:02.189Z,-0.73
2023-02-27T10:58:35.051Z,-0.66
2023-02-27T11:01:04.977Z,-0.54
2023-02-27T11:03:39.241Z,-0.55
2023-02-27T11:06:12.889Z,-0.46
2023-02-27T11:08:39.673Z,-0.49
2023-02-27T11:11:11.772Z,-0.45
2023-02-27T11:13:41.190Z,-0.25
2023-02-27T11:16:15.368Z,-0.19
2023-02-27T11:18:44.185Z,0.00
2023-02-27T11:21:16.502Z,0.10
2023-02-27T11:23:58.096Z,-0.01
2023-02-27T11:26:33.151Z,0.10
2023-02-27T11:29:14.762Z,0.16
2023-02-27T11:31:47.840Z,0.14
2023-02-27T11:34:30.281Z,0.16
2023-02-27T11:37:01.302Z,0.31
2023-02-27T11:39:36.353Z,0.46
2023-02-27T11:42:29.840Z,0.61
2023-02-27T11:46:14.684Z,0.68
2023-02-27T11:48:50.454Z,0.64
2023-02-27T11:51:54.378Z,0.89
2023-02-27T11:54:32.313Z,1.10
2023-02-27T11:57:04.610Z,0.94
2023-02-27T11:59:38.574Z,1.07
2023-02-27T12:02:20.462Z,1.25
2023-02-27T12:05:06.364Z,1.32
2023-02-27T12:07:53.985Z,1.25
2023-02-27T12:10:24.841Z,0.98
2023-02-27T12:12:57.160Z,0.85
2023-02-27T12:15:42.880Z,0.92
2023-02-27T12:18:21.221Z,1.08
2023-02-27T12:21:15.455Z,1.13
2023-02-27T12:23:47.374Z,1.03
2023-02-27T12:26:21.916Z,1.07
2023-02-27T12:29:25.649Z,0.92
2023-02-27T12:32:17.648Z,0.91
2023-02-27T12:34:58.855Z,0.82
2023-02-27T12:37:28.302Z,0.77
2023-02-27T12:39:58.109Z,0.83
2023-02-27T12:43:17.450Z,0.96
2023-02-27T12:46:06.368Z,1.19
2023-02-27T12:48:43.189Z,1.04
2023-02-27T12:51:28.277Z,1.12
2023-02-27T12:54:26.886Z,0.95
2023-02-27T12:57:22.347Z,1.03
2023-02-27T13:00:22.897Z,0.95
2023-02-27T13:03:15.550Z,0.84
2023-02-27T13:05:43.097Z,0.89
2023-02-27T13:08:16.798Z,0.83
2023-02-27T13:11:13.843Z,0.83
2023-02-27T13:13:47.574Z,0.93
2023-02-27T13:16:16.987Z,1.09
2023-02-27T13:18:49.863Z,1.05
2023-02-27T13:21:28.795Z,1.04
2023-02-27T13:24:26.617Z,1.12
2023-02-27T13:27:28.905Z,1.25
2023-02-27T13:30:03.587Z,1.11
2023-02-27T13:32:44.480Z,1.19
2023-02-27T13:35:33.232Z,1.23
2023-02-27T13:38:02.402Z,1.20
2023-02-27T13:40:28.873Z,1.27
2023-02-27T13:43:01.925Z,1.34
2023-02-27T13:45:53.873Z,1.51
2023-02-27T13:48:43.676Z,1.66
2023-02-27T13:51:48.906Z,1.67
2023-02-27T13:54:15.316Z,1.56
2023-02-27T13:56:49.091Z,1.81
2023-02-27T13:59:32.070Z,1.93
2023-02-27T14:02:24.930Z,1.95
2023-02-27T14:04:55.128Z,1.93
2023-02-27T14:07:25.327Z,2.07
2023-02-27T14:10:00.307Z,2.21
2023-02-27T14:12:45.446Z,2.05
2023-02-27T14:15:18.238Z,2.00
2023-02-27T14:17:46.949Z,2.04
2023-02-27T14:20:16.241Z,2.13
2023-02-27T14:23:04.415Z,2.25
2023-02-27T14:25:35.447Z,2.23
2023-02-27T14:28:02.792Z,2.15
2023-02-27T14:30:32.074Z,2.13
2023-02-27T14:33:07.779Z,2.11
2023-02-27T14:35:35.868Z,2.02
2023-02-27T14:38:09.763Z,1.88
2023-02-27T14:40:43.036Z,1.82
2023-02-27T14:43:29.059Z,1.79
2023-02-27T14:45:55.986Z,1.58
2023-02-27T14:48:27.801Z,1.43
2023-02-27T14:50:54.711Z,1.28
2023-02-27T14:53:26.614Z,1.17
2023-02-27T14:55:58.547Z,1.14
2023-02-27T14:58:25.925Z,1.20
2023-02-27T15:01:10.853Z,1.28
2023-02-27T15:03:46.724Z,1.39
2023-02-27T15:06:17.523Z,1.47
2023-02-27T15:08:48.880Z,1.58
2023-02-27T15:11:18.116Z,1.62
2023-02-27T15:13:45.706Z,1.64
2023-02-27T15:16:24.328Z,1.64
2023-02-27T15:18:53.498Z,1.66
2023-02-27T15:21:23.298Z,1.65
2023-02-27T15:23:55.854Z,1.66
2023-02-27T15:26:22.279Z,1.61
2023-02-27T15:28:50.117Z,1.64
2023-02-27T15:31:22.772Z,1.56
2023-02-27T15:33:50.533Z,1.55
2023-02-27T15:36:22.017Z,1.48
2023-02-27T15:39:08.018Z,1.53
2023-02-27T15:41:34.839Z,1.48
2023-02-27T15:44:03.232Z,1.41
2023-02-27T15:46:30.618Z,1.36
2023-02-27T15:48:57.575Z,1.37
2023-02-27T15:51:26.677Z,1.42
2023-02-27T15:53:55.549Z,1.29
2023-02-27T15:56:28.433Z,1.36
2023-02-27T15:59:00.134Z,1.33
2023-02-27T16:01:30.736Z,1.38
2023-02-27T16:03:59.937Z,1.29
2023-02-27T16:06:30.506Z,1.26
2023-02-27T16:09:15.739Z,1.26
2023-02-27T16:11:42.176Z,1.10
2023-02-27T16:14:37.373Z,1.08
2023-02-27T16:17:04.208Z,1.06
2023-02-27T16:19:32.460Z,0.98
2023-02-27T16:22:06.696Z,1.05
2023-02-27T16:24:33.641Z,0.97
2023-02-27T16:27:01.713Z,1.00
2023-02-27T16:29:35.678Z,1.00
2023-02-27T16:32:03.615Z,1.00
2023-02-27T16:34:45.577Z,1.02
2023-02-27T16:37:25.583Z,0.95
2023-02-27T16:39:52.262Z,0.97
2023-02-27T16:42:18.811Z,0.97
2023-02-27T16:44:45.288Z,0.89
2023-02-27T16:47:11.779Z,0.87
2023-02-27T16:49:39.027Z,0.84
2023-02-27T16:52:07.249Z,0.84
2023-02-27T16:54:35.010Z,0.82
2023-02-27T16:57:01.375Z,0.81
2023-02-27T16:59:33.270Z,0.82
2023-02-27T17:02:02.652Z,0.75
2023-02-27T17:04:29.536Z,0.77
2023-02-27T17:06:57.404Z,0.60
2023-02-27T17:09:24.361Z,0.62
2023-02-27T17:11:50.713Z,0.73
2023-02-27T17:14:17.181Z,0.70
2023-02-27T17:16:43.582Z,0.57
2023-02-27T17:19:10.086Z,0.63
2023-02-27T17:21:36.472Z,0.65
2023-02-27T17:24:04.014Z,0.67
2023-02-27T17:26:31.101Z,0.58
2023-02-27T17:28:58.486Z,0.67
2023-02-27T17:31:25.690Z,0.55
2023-02-27T17:33:53.531Z,0.63
2023-02-27T17:36:22.159Z,0.49
2023-02-27T17:38:49.189Z,0.58
2023-02-27T17:41:16.263Z,0.58
2023-02-27T17:43:42.681Z,0.47
2023-02-27T17:46:10.738Z,0.47
2023-02-27T17:48:38.369Z,0.51
2023-02-27T17:51:11.438Z,0.45
2023-02-27T17:53:38.886Z,0.49
2023-02-27T17:56:06.571Z,0.47
2023-02-27T17:58:33.914Z,0.42
2023-02-27T18:01:08.888Z,0.42
2023-02-27T18:03:35.496Z,0.45
2023-02-27T18:06:02.126Z,0.35
2023-02-27T18:08:28.823Z,0.33
2023-02-27T18:10:56.286Z,0.48
2023-02-27T18:13:23.606Z,0.43
2023-02-27T18:15:50.340Z,0.34
2023-02-27T18:18:16.771Z,0.36
2023-02-27T18:20:43.276Z,0.28
2023-02-27T18:23:10.200Z,0.26
2023-02-27T18:25:37.275Z,0.18
2023-02-27T18:28:05.174Z,0.17
2023-02-27T18:30:33.504Z,0.08
2023-02-27T18:33:00.158Z,0.04
2023-02-27T18:35:27.174Z,-0.02
2023-02-27T18:37:53.904Z,-0.04
2023-02-27T18:40:24.425Z,-0.02
2023-02-27T18:42:52.443Z,-0.13
2023-02-27T18:45:19.810Z,-0.12
2023-02-27T18:47:47.108Z,-0.07
2023-02-27T18:50:13.644Z,-0.13
2023-02-27T18:52:40.037Z,-0.22
2023-02-27T18:55:06.881Z,-0.24
2023-02-27T18:57:33.290Z,-0.33
2023-02-27T18:59:59.705Z,-0.34
2023-02-27T19:02:26.136Z,-0.46
2023-02-27T19:04:52.525Z,-0.40
2023-02-27T19:07:20.520Z,-0.49
2023-02-27T19:09:47.007Z,-0.49
2023-02-27T19:12:13.557Z,-0.54
2023-02-27T19:14:40.666Z,-0.45
2023-02-27T19:17:07.292Z,-0.52
2023-02-27T19:19:33.659Z,-0.46
2023-02-27T19:22:00.224Z,-0.40
2023-02-27T19:24:26.705Z,-0.47
2023-02-27T19:26:53.572Z,-0.51
2023-02-27T19:29:20.446Z,-0.50
2023-02-27T19:31:47.021Z,-0.46
2023-02-27T19:34:14.808Z,-0.49
2023-02-27T19:36:41.469Z,-0.56
2023-02-27T19:39:07.873Z,-0.46
2023-02-27T19:41:34.240Z,-0.53
2023-02-27T19:44:00.916Z,-0.47
2023-02-27T19:46:30.824Z,-0.52
2023-02-27T19:49:00.771Z,-0.51
2023-02-27T19:51:27.478Z,-0.48
2023-02-27T19:53:54.754Z,-0.49
2023-02-27T19:56:24.033Z,-0.51
2023-02-27T19:58:51.102Z,-0.48
2023-02-27T20:01:28.458Z,-0.58
2023-02-27T20:03:55.990Z,-0.56
2023-02-27T20:06:24.753Z,-0.54
2023-02-27T20:08:53.052Z,-0.65
2023-02-27T20:11:20.781Z,-0.69
2023-02-27T20:13:48.660Z,-0.80
2023-02-27T20:16:18.762Z,-0.83
2023-02-27T20:18:45.575Z,-0.92
2023-02-27T20:21:15.154Z,-0.83
2023-02-27T20:23:44.292Z,-0.85
2023-02-27T20:26:19.094Z,-0.84
2023-02-27T20:28:46.446Z,-0.94
2023-02-27T20:31:14.898Z,-0.93
2023-02-27T20:33:42.397Z,-1.02
2023-02-27T20:36:10.488Z,-0.94
2023-02-27T20:38:39.037Z,-0.88
2023-02-27T20:41:10.907Z,-0.83
2023-02-27T20:43:38.480Z,-0.88
2023-02-27T20:46:06.650Z,-0.86
2023-02-27T20:48:33.313Z,-0.83
2023-02-27T20:51:22.259Z,-0.77
2023-02-27T20:53:51.767Z,-0.65
2023-02-27T20:56:25.227Z,-0.69
2023-02-27T20:58:51.774Z,-0.75
2023-02-27T21:01:19.005Z,-0.68
2023-02-27T21:03:46.836Z,-0.73
2023-02-27T21:06:15.510Z,-0.68
2023-02-27T21:08:46.295Z,-0.58
2023-02-27T21:11:24.362Z,-0.60
2023-02-27T21:13:50.787Z,-0.50
2023-02-27T21:16:18.550Z,-0.65
2023-02-27T21:18:45.404Z,-0.56
2023-02-27T21:21:22.856Z,-0.55
2023-02-27T21:23:49.532Z,-0.59
2023-02-27T21:26:15.809Z,-0.51
2023-02-27T21:28:47.555Z,-0.62
2023-02-27T21:31:15.786Z,-0.56
2023-02-27T21:33:42.514Z,-0.63
2023-02-27T21:36:09.937Z,-0.54
2023-02-27T21:38:37.219Z,-0.57
2023-02-27T21:41:11.445Z,-0.55
2023-02-27T21:43:40.230Z,-0.51
2023-02-27T21:46:08.389Z,-0.61
2023-02-27T21:48:34.846Z,-0.52
2023-02-27T21:51:01.947Z,-0.57
2023-02-27T21:53:28.947Z,-0.63
2023-02-27T21:55:56.155Z,-0.64
2023-02-27T21:58:23.449Z,-0.50
2023-02-27T22:00:50.489Z,-0.56
2023-02-27T22:03:17.449Z,-0.54
2023-02-27T22:05:44.340Z,-0.65
2023-02-27T22:08:10.727Z,-0.64
2023-02-27T22:10:45.658Z,-0.60
2023-02-27T22:13:15.499Z,-0.77
2023-02-27T22:15:42.412Z,-0.75
2023-02-27T22:18:09.298Z,-0.74
2023-02-27T22:20:39.125Z,-0.81
2023-02-27T22:23:06.429Z,-0.78
2023-02-27T22:25:32.847Z,-0.74
2023-02-27T22:27:59.778Z,-0.73
2023-02-27T22:30:27.255Z,-0.73
2023-02-27T22:32:54.799Z,-0.76
2023-02-27T22:35:22.619Z,-0.80
2023-02-27T22:37:49.037Z,-0.80
2023-02-27T22:40:17.628Z,-0.76
2023-02-27T22:42:48.017Z,-0.84
2023-02-27T22:45:15.112Z,-0.84
2023-02-27T22:47:41.568Z,-0.90
2023-02-27T22:50:08.664Z,-0.89
2023-02-27T22:52:36.209Z,-0.90
2023-02-27T22:55:03.420Z,-0.93
2023-02-27T22:57:29.924Z,-1.08
2023-02-27T22:59:56.276Z,-0.97
2023-02-27T23:02:23.012Z,-1.16
2023-02-27T23:04:49.363Z,-1.11
2023-02-27T23:07:15.702Z,-1.23
2023-02-27T23:09:42.269Z,-1.30
2023-02-27T23:12:08.670Z,-1.33
2023-02-27T23:14:35.127Z,-1.26
2023-02-27T23:17:01.474Z,-1.21
2023-02-27T23:19:27.821Z,-1.29
2023-02-27T23:21:54.166Z,-1.33
2023-02-27T23:24:20.629Z,-1.38
2023-02-27T23:26:49.318Z,-1.39
2023-02-27T23:29:15.746Z,-1.42
2023-02-27T23:31:42.559Z,-1.40
2023-02-27T23:34:09.424Z,-1.53
2023-02-27T23:36:37.123Z,-1.56
2023-02-27T23:39:04.549Z,-1.50
2023-02-27T23:41:31.463Z,-1.61
2023-02-27T23:43:57.982Z,-1.59
2023-02-27T23:46:24.353Z,-1.59
2023-02-27T23:48:50.725Z,-1.59
2023-02-27T23:51:17.102Z,-1.66
2023-02-27T23:53:43.586Z,-1.63
2023-02-27T23:56:14.106Z,-1.62
2023-02-27T23:58:40.575Z,-1.81
